createdAt,value
2019-01-15T00:00:32.781Z,-0.32
2019-01-15T00:01:32.773Z,-0.26
2019-01-15T00:02:32.766Z,-0.18
2019-01-15T00:03:32.733Z,-0.18
2019-01-15T00:04:32.712Z,-0.15
2019-01-15T00:05:32.814Z,-0.21
2019-01-15T00:06:32.693Z,-0.18
2019-01-15T00:07:32.708Z,-0.21
2019-01-15T00:08:32.712Z,-0.13
2019-01-15T00:09:32.704Z,-0.08
2019-01-15T00:10:32.683Z,-0.03
2019-01-15T00:11:32.713Z,-0.07
2019-01-15T00:12:32.662Z,0.01
2019-01-15T00:13:32.643Z,-0.08
2019-01-15T00:14:32.617Z,0.00
2019-01-15T00:15:32.612Z,0.12
2019-01-15T00:16:32.597Z,0.08
2019-01-15T00:17:32.602Z,0.11
2019-01-15T00:18:32.603Z,0.15
2019-01-15T00:19:32.581Z,0.16
2019-01-15T00:20:32.557Z,0.18
2019-01-15T00:21:32.537Z,0.19
2019-01-15T00:22:32.577Z,0.15
2019-01-15T00:23:32.539Z,0.19
2019-01-15T00:24:32.510Z,0.28
2019-01-15T00:25:32.495Z,0.31
2019-01-15T00:26:32.503Z,0.26
2019-01-15T00:27:32.568Z,0.28
2019-01-15T00:28:32.510Z,0.32
2019-01-15T00:29:32.484Z,0.25
2019-01-15T00:30:32.425Z,0.23
2019-01-15T00:31:32.436Z,0.26
2019-01-15T00:32:32.460Z,0.22
2019-01-15T00:33:32.511Z,0.26
2019-01-15T00:34:32.419Z,0.29
2019-01-15T00:35:32.391Z,0.19
2019-01-15T00:36:32.383Z,0.21
2019-01-15T00:37:32.412Z,0.23
2019-01-15T00:38:32.443Z,0.23
2019-01-15T00:39:32.359Z,0.18
2019-01-15T00:40:32.343Z,0.21
2019-01-15T00:41:32.344Z,0.18
2019-01-15T00:42:32.316Z,0.21
2019-01-15T00:43:32.346Z,0.26
2019-01-15T00:44:32.303Z,0.34
2019-01-15T00:45:32.288Z,0.41
2019-01-15T00:46:32.287Z,0.31
2019-01-15T00:47:32.278Z,0.34
2019-01-15T00:48:32.326Z,0.31
2019-01-15T00:49:32.321Z,0.21
2019-01-15T00:50:32.264Z,0.23
2019-01-15T00:51:32.216Z,0.23
2019-01-15T00:52:32.226Z,0.15
2019-01-15T00:53:32.250Z,0.04
2019-01-15T00:54:32.238Z,0.12
2019-01-15T00:55:32.189Z,0.12
2019-01-15T00:56:32.162Z,0.05
2019-01-15T00:57:32.217Z,-0.02
2019-01-15T00:58:32.237Z,-0.02
2019-01-15T00:59:32.172Z,-0.07
2019-01-15T01:00:32.120Z,-0.07
2019-01-15T01:01:32.175Z,-0.08
2019-01-15T01:02:32.102Z,-0.17
2019-01-15T01:03:32.104Z,-0.03
2019-01-15T01:04:32.105Z,-0.11
2019-01-15T01:05:32.099Z,-0.11
2019-01-15T01:06:32.069Z,-0.10
2019-01-15T01:07:32.156Z,-0.17
2019-01-15T01:08:32.112Z,-0.13
2019-01-15T01:09:32.043Z,-0.14
2019-01-15T01:10:32.056Z,-0.26
2019-01-15T01:11:32.036Z,-0.29
2019-01-15T01:12:32.007Z,-0.21
2019-01-15T01:13:32.059Z,-0.25
2019-01-15T01:14:31.984Z,-0.26
2019-01-15T01:15:31.969Z,-0.29
2019-01-15T01:16:32.008Z,-0.26
2019-01-15T01:17:31.948Z,-0.25
2019-01-15T01:18:31.996Z,-0.26
2019-01-15T01:19:31.950Z,-0.34
2019-01-15T01:20:31.930Z,-0.26
2019-01-15T01:21:31.955Z,-0.26
2019-01-15T01:22:31.879Z,-0.38
2019-01-15T01:23:31.928Z,-0.34
2019-01-15T01:24:31.869Z,-0.44
2019-01-15T01:25:31.871Z,-0.34
2019-01-15T01:26:31.880Z,-0.39
2019-01-15T01:27:31.845Z,-0.46
2019-01-15T01:28:31.924Z,-0.43
2019-01-15T01:29:31.887Z,-0.39
2019-01-15T01:30:31.808Z,-0.49
2019-01-15T01:31:31.783Z,-0.50
2019-01-15T01:32:31.775Z,-0.59
2019-01-15T01:33:31.789Z,-0.65
2019-01-15T01:34:31.868Z,-0.64
2019-01-15T01:35:31.775Z,-0.65
2019-01-15T01:36:32.566Z,-0.68
2019-01-15T01:37:31.734Z,-0.65
2019-01-15T01:38:31.719Z,-0.68
2019-01-15T01:39:31.783Z,-0.67
2019-01-15T01:40:31.770Z,-0.70
2019-01-15T01:41:31.704Z,-0.71
2019-01-15T01:42:31.719Z,-0.71
2019-01-15T01:43:31.742Z,-0.74
2019-01-15T01:44:31.706Z,-0.68
2019-01-15T01:45:31.654Z,-0.71
2019-01-15T01:46:31.708Z,-0.71
2019-01-15T01:47:31.620Z,-0.68
2019-01-15T01:48:31.621Z,-0.65
2019-01-15T01:49:31.617Z,-0.70
2019-01-15T01:50:31.614Z,-0.68
2019-01-15T01:51:31.615Z,-0.68
2019-01-15T01:52:31.848Z,-0.78
2019-01-15T01:53:31.591Z,-0.82
2019-01-15T01:54:31.547Z,-0.78
2019-01-15T01:55:31.558Z,-0.75
2019-01-15T01:56:31.545Z,-0.70
2019-01-15T01:57:31.563Z,-0.70
2019-01-15T01:58:31.528Z,-0.67
2019-01-15T01:59:31.531Z,-0.67
2019-01-15T02:00:31.526Z,-0.54
2019-01-15T02:01:31.494Z,-0.54
2019-01-15T02:02:31.536Z,-0.47
2019-01-15T02:03:31.470Z,-0.47
2019-01-15T02:04:31.488Z,-0.44
2019-01-15T02:05:31.446Z,-0.34
2019-01-15T02:06:31.444Z,-0.39
2019-01-15T02:07:31.433Z,-0.32
2019-01-15T02:08:31.448Z,-0.29
2019-01-15T02:09:31.437Z,-0.23
2019-01-15T02:10:31.400Z,-0.25
2019-01-15T02:11:31.473Z,-0.31
2019-01-15T02:12:36.876Z,-0.15
2019-01-15T02:13:31.354Z,-0.15
2019-01-15T02:14:31.361Z,-0.13
2019-01-15T02:15:31.334Z,-0.15
2019-01-15T02:16:31.325Z,-0.08
2019-01-15T02:17:31.359Z,-0.08
2019-01-15T02:18:31.354Z,-0.10
2019-01-15T02:19:31.289Z,0.00
2019-01-15T02:20:31.291Z,-0.02
2019-01-15T02:21:31.477Z,0.01
2019-01-15T02:22:31.266Z,0.01
2019-01-15T02:23:31.327Z,0.01
2019-01-15T02:24:31.268Z,0.12
2019-01-15T02:25:31.221Z,0.08
2019-01-15T02:26:31.224Z,0.12
2019-01-15T02:27:31.214Z,0.11
2019-01-15T02:28:31.286Z,0.11
2019-01-15T02:29:31.274Z,0.12
2019-01-15T02:30:31.183Z,0.05
2019-01-15T02:31:31.220Z,0.18
2019-01-15T02:32:31.170Z,0.18
2019-01-15T02:33:31.165Z,0.16
2019-01-15T02:34:31.167Z,0.12
2019-01-15T02:35:31.140Z,0.12
2019-01-15T02:36:31.237Z,0.11
2019-01-15T02:37:31.132Z,0.21
2019-01-15T02:38:31.115Z,0.19
2019-01-15T02:39:31.110Z,0.19
2019-01-15T02:40:31.115Z,0.18
2019-01-15T02:41:31.114Z,0.22
2019-01-15T02:42:31.081Z,0.18
2019-01-15T02:43:31.089Z,0.22
2019-01-15T02:44:31.054Z,0.19
2019-01-15T02:45:31.086Z,0.16
2019-01-15T02:46:31.014Z,0.37
2019-01-15T02:47:31.014Z,0.40
2019-01-15T02:48:31.036Z,0.47
2019-01-15T02:49:31.034Z,0.59
2019-01-15T02:50:30.975Z,0.52
2019-01-15T02:51:30.965Z,0.56
2019-01-15T02:52:30.960Z,0.55
2019-01-15T02:53:31.566Z,0.52
2019-01-15T02:54:30.915Z,0.68
2019-01-15T02:55:31.110Z,0.60
2019-01-15T02:56:30.912Z,0.68
2019-01-15T02:57:30.894Z,0.68
2019-01-15T02:58:30.885Z,0.66
2019-01-15T02:59:30.881Z,0.76
2019-01-15T03:00:30.899Z,0.76
2019-01-15T03:01:30.896Z,0.69
2019-01-15T03:02:30.827Z,0.77
2019-01-15T03:03:30.837Z,0.74
2019-01-15T03:04:30.835Z,0.77
2019-01-15T03:05:30.849Z,0.69
2019-01-15T03:06:30.802Z,0.76
2019-01-15T03:07:30.809Z,0.78
2019-01-15T03:08:30.759Z,0.76
2019-01-15T03:09:30.791Z,0.74
2019-01-15T03:10:30.771Z,0.73
2019-01-15T03:11:31.547Z,0.70
2019-01-15T03:12:30.748Z,0.69
2019-01-15T03:13:30.742Z,0.65
2019-01-15T03:14:30.799Z,0.66
2019-01-15T03:15:30.715Z,0.65
2019-01-15T03:16:30.690Z,0.66
2019-01-15T03:17:30.699Z,0.66
2019-01-15T03:18:30.709Z,0.76
2019-01-15T03:19:30.815Z,0.70
2019-01-15T03:20:30.664Z,0.73
2019-01-15T03:21:30.628Z,0.74
2019-01-15T03:22:30.656Z,0.70
2019-01-15T03:23:30.630Z,0.68
2019-01-15T03:24:30.670Z,0.74
2019-01-15T03:25:30.615Z,0.73
2019-01-15T03:26:30.602Z,0.73
2019-01-15T03:27:30.638Z,0.83
2019-01-15T03:28:31.539Z,0.91
2019-01-15T03:29:30.640Z,0.88
2019-01-15T03:30:30.565Z,0.88
2019-01-15T03:31:30.563Z,0.95
2019-01-15T03:32:30.545Z,0.94
2019-01-15T03:33:30.527Z,0.99
2019-01-15T03:34:30.492Z,0.95
2019-01-15T03:35:30.584Z,1.01
2019-01-15T03:36:30.486Z,1.14
2019-01-15T03:37:30.485Z,1.13
2019-01-15T03:38:30.473Z,1.14
2019-01-15T03:39:30.442Z,1.20
2019-01-15T03:40:30.452Z,1.10
2019-01-15T03:41:30.512Z,1.12
2019-01-15T03:42:32.075Z,1.10
2019-01-15T03:43:30.400Z,1.10
2019-01-15T03:44:30.416Z,1.12
2019-01-15T03:45:30.397Z,1.08
2019-01-15T03:46:30.381Z,1.12
2019-01-15T03:47:30.372Z,1.20
2019-01-15T03:48:30.597Z,1.19
2019-01-15T03:49:30.336Z,1.14
2019-01-15T03:50:30.348Z,1.12
2019-01-15T03:51:30.531Z,1.19
2019-01-15T03:52:30.308Z,1.22
2019-01-15T03:53:30.356Z,1.22
2019-01-15T03:54:30.282Z,1.22
2019-01-15T03:55:30.305Z,1.22
2019-01-15T03:56:30.279Z,1.26
2019-01-15T03:57:30.307Z,1.19
2019-01-15T03:58:30.305Z,1.22
2019-01-15T03:59:30.236Z,1.22
2019-01-15T04:00:30.267Z,1.22
2019-01-15T04:01:30.243Z,1.24
2019-01-15T04:02:30.209Z,1.28
2019-01-15T04:03:30.204Z,1.19
2019-01-15T04:04:30.189Z,1.22
2019-01-15T04:05:30.192Z,1.28
2019-01-15T04:06:30.158Z,1.23
2019-01-15T04:07:30.190Z,1.28
2019-01-15T04:08:30.144Z,1.35
2019-01-15T04:09:30.137Z,1.26
2019-01-15T04:10:30.132Z,1.24
2019-01-15T04:11:30.107Z,1.26
2019-01-15T04:12:30.109Z,1.31
2019-01-15T04:13:30.093Z,1.30
2019-01-15T04:14:30.076Z,1.35
2019-01-15T04:15:30.078Z,1.32
2019-01-15T04:16:30.057Z,1.41
2019-01-15T04:17:30.045Z,1.44
2019-01-15T04:18:30.037Z,1.41
2019-01-15T04:19:30.066Z,1.44
2019-01-15T04:20:30.037Z,1.44
2019-01-15T04:21:30.001Z,1.49
2019-01-15T04:22:29.994Z,1.45
2019-01-15T04:23:29.981Z,1.49
2019-01-15T04:24:29.988Z,1.55
2019-01-15T04:25:29.992Z,1.56
2019-01-15T04:26:30.011Z,1.56
2019-01-15T04:27:29.968Z,1.53
2019-01-15T04:28:29.964Z,1.45
2019-01-15T04:29:29.932Z,1.48
2019-01-15T04:30:29.908Z,1.55
2019-01-15T04:31:29.904Z,1.60
2019-01-15T04:32:29.903Z,1.58
2019-01-15T04:33:29.878Z,1.55
2019-01-15T04:34:29.887Z,1.53
2019-01-15T04:35:29.861Z,1.53
2019-01-15T04:36:29.842Z,1.45
2019-01-15T04:37:29.848Z,1.55
2019-01-15T04:38:29.842Z,1.53
2019-01-15T04:39:29.823Z,1.44
2019-01-15T04:40:29.815Z,1.59
2019-01-15T04:41:29.790Z,1.53
2019-01-15T04:42:29.785Z,1.53
2019-01-15T04:43:29.790Z,1.56
2019-01-15T04:44:29.811Z,1.58
2019-01-15T04:45:29.750Z,1.58
2019-01-15T04:46:29.799Z,1.62
2019-01-15T04:47:29.793Z,1.58
2019-01-15T04:48:29.735Z,1.60
2019-01-15T04:49:29.730Z,1.63
2019-01-15T04:50:29.720Z,1.62
2019-01-15T04:51:29.714Z,1.58
2019-01-15T04:52:29.674Z,1.62
2019-01-15T04:53:29.712Z,1.63
2019-01-15T04:54:29.674Z,1.63
2019-01-15T04:55:29.669Z,1.56
2019-01-15T04:56:29.640Z,1.63
2019-01-15T04:57:29.627Z,1.63
2019-01-15T04:58:29.678Z,1.59
2019-01-15T04:59:29.634Z,1.60
2019-01-15T05:00:29.587Z,1.59
2019-01-15T05:01:29.597Z,1.62
2019-01-15T05:02:29.641Z,1.56
2019-01-15T05:03:29.580Z,1.59
2019-01-15T05:04:29.547Z,1.56
2019-01-15T05:05:29.566Z,1.62
2019-01-15T05:06:29.525Z,1.56
2019-01-15T05:07:29.515Z,1.63
2019-01-15T05:08:29.524Z,1.66
2019-01-15T05:09:29.507Z,1.56
2019-01-15T05:10:29.526Z,1.68
2019-01-15T05:11:29.682Z,1.59
2019-01-15T05:12:29.461Z,1.68
2019-01-15T05:13:29.464Z,1.59
2019-01-15T05:14:29.442Z,1.73
2019-01-15T05:15:29.432Z,1.71
2019-01-15T05:16:29.459Z,1.77
2019-01-15T05:17:29.430Z,1.68
2019-01-15T05:18:29.446Z,1.74
2019-01-15T05:19:29.389Z,1.76
2019-01-15T05:20:29.382Z,1.70
2019-01-15T05:21:29.369Z,1.77
2019-01-15T05:22:29.355Z,1.70
2019-01-15T05:23:29.368Z,1.77
2019-01-15T05:24:29.342Z,1.77
2019-01-15T05:25:29.395Z,1.73
2019-01-15T05:26:29.373Z,1.74
2019-01-15T05:27:29.309Z,1.76
2019-01-15T05:28:29.576Z,1.84
2019-01-15T05:29:29.288Z,1.78
2019-01-15T05:30:29.313Z,1.81
2019-01-15T05:31:29.308Z,1.77
2019-01-15T05:32:29.465Z,1.84
2019-01-15T05:33:29.335Z,1.81
2019-01-15T05:34:29.251Z,1.85
2019-01-15T05:35:29.223Z,1.81
2019-01-15T05:36:29.253Z,1.80
2019-01-15T05:37:29.223Z,1.85
2019-01-15T05:38:29.281Z,1.89
2019-01-15T05:39:29.223Z,1.94
2019-01-15T05:40:29.209Z,1.87
2019-01-15T05:41:29.202Z,1.94
2019-01-15T05:42:29.219Z,1.92
2019-01-15T05:43:35.497Z,1.92
2019-01-15T05:44:30.152Z,1.95
2019-01-15T05:45:29.136Z,1.94
2019-01-15T05:46:29.119Z,1.89
2019-01-15T05:47:29.103Z,1.91
2019-01-15T05:48:29.093Z,1.94
2019-01-15T05:49:29.078Z,2.00
2019-01-15T05:50:29.166Z,1.92
2019-01-15T05:51:29.094Z,1.97
2019-01-15T05:52:29.077Z,1.95
2019-01-15T05:53:29.067Z,1.89
2019-01-15T05:54:29.058Z,1.89
2019-01-15T05:55:29.012Z,1.89
2019-01-15T05:56:29.015Z,1.88
2019-01-15T05:57:29.062Z,1.94
2019-01-15T05:58:29.002Z,1.99
2019-01-15T05:59:29.019Z,1.94
2019-01-15T06:00:28.974Z,2.04
2019-01-15T06:01:28.963Z,1.94
2019-01-15T06:02:28.944Z,1.99
2019-01-15T06:03:28.961Z,1.97
2019-01-15T06:04:28.942Z,1.92
2019-01-15T06:05:28.916Z,2.11
2019-01-15T06:06:28.905Z,2.02
2019-01-15T06:07:33.614Z,2.00
2019-01-15T06:08:29.879Z,2.11
2019-01-15T06:09:28.944Z,2.13
2019-01-15T06:10:28.856Z,2.10
2019-01-15T06:11:28.861Z,2.10
2019-01-15T06:12:28.883Z,2.08
2019-01-15T06:13:28.839Z,2.11
2019-01-15T06:14:28.834Z,2.11
2019-01-15T06:15:28.845Z,2.18
2019-01-15T06:16:28.797Z,2.13
2019-01-15T06:17:28.798Z,2.13
2019-01-15T06:18:28.792Z,2.07
2019-01-15T06:19:28.782Z,2.11
2019-01-15T06:20:28.754Z,2.11
2019-01-15T06:21:28.779Z,2.14
2019-01-15T06:22:28.744Z,2.13
2019-01-15T06:23:28.739Z,2.11
2019-01-15T06:24:28.729Z,2.13
2019-01-15T06:25:28.703Z,2.14
2019-01-15T06:26:28.694Z,2.24
2019-01-15T06:27:28.729Z,2.22
2019-01-15T06:28:28.673Z,2.15
2019-01-15T06:29:28.689Z,2.25
2019-01-15T06:30:28.655Z,2.24
2019-01-15T06:31:28.642Z,2.24
2019-01-15T06:32:28.650Z,2.28
2019-01-15T06:33:28.670Z,2.18
2019-01-15T06:34:28.659Z,2.18
2019-01-15T06:35:28.615Z,2.28
2019-01-15T06:36:28.592Z,2.18
2019-01-15T06:37:28.586Z,2.22
2019-01-15T06:38:28.575Z,2.22
2019-01-15T06:39:28.616Z,2.24
2019-01-15T06:40:28.547Z,2.28
2019-01-15T06:41:28.538Z,2.36
2019-01-15T06:42:28.528Z,2.33
2019-01-15T06:43:28.516Z,2.35
2019-01-15T06:44:28.541Z,2.35
2019-01-15T06:45:28.509Z,2.33
2019-01-15T06:46:28.488Z,2.26
2019-01-15T06:47:28.484Z,2.35
2019-01-15T06:48:28.474Z,2.33
2019-01-15T06:49:28.477Z,2.20
2019-01-15T06:50:28.495Z,2.24
2019-01-15T06:51:28.510Z,2.33
2019-01-15T06:52:28.430Z,2.38
2019-01-15T06:53:28.471Z,2.32
2019-01-15T06:54:28.446Z,2.31
2019-01-15T06:55:28.418Z,2.32
2019-01-15T06:56:28.484Z,2.31
2019-01-15T06:57:28.398Z,2.31
2019-01-15T06:58:28.433Z,2.38
2019-01-15T06:59:28.627Z,2.36
2019-01-15T07:00:28.373Z,2.33
2019-01-15T07:01:28.392Z,2.38
2019-01-15T07:02:28.361Z,2.31
2019-01-15T07:03:28.340Z,2.29
2019-01-15T07:04:28.345Z,2.32
2019-01-15T07:05:28.312Z,2.35
2019-01-15T07:06:28.307Z,2.28
2019-01-15T07:07:28.288Z,2.35
2019-01-15T07:08:28.272Z,2.36
2019-01-15T07:09:28.285Z,2.33
2019-01-15T07:10:28.236Z,2.38
2019-01-15T07:11:28.255Z,2.36
2019-01-15T07:12:28.244Z,2.43
2019-01-15T07:13:28.216Z,2.35
2019-01-15T07:14:28.266Z,2.39
2019-01-15T07:15:28.201Z,2.42
2019-01-15T07:16:28.205Z,2.43
2019-01-15T07:17:28.381Z,2.42
2019-01-15T07:18:28.168Z,2.33
2019-01-15T07:19:28.161Z,2.42
2019-01-15T07:20:28.153Z,2.35
2019-01-15T07:21:28.135Z,2.39
2019-01-15T07:22:28.157Z,2.47
2019-01-15T07:23:28.119Z,2.38
2019-01-15T07:24:28.095Z,2.39
2019-01-15T07:25:28.154Z,2.38
2019-01-15T07:26:28.075Z,2.47
2019-01-15T07:27:28.065Z,2.47
2019-01-15T07:28:28.072Z,2.42
2019-01-15T07:29:28.077Z,2.42
2019-01-15T07:30:28.051Z,2.47
2019-01-15T07:31:28.026Z,2.49
2019-01-15T07:32:28.013Z,2.47
2019-01-15T07:33:28.012Z,2.46
2019-01-15T07:34:27.990Z,2.43
2019-01-15T07:35:27.996Z,2.43
2019-01-15T07:36:28.022Z,2.44
2019-01-15T07:37:27.977Z,2.49
2019-01-15T07:38:28.019Z,2.49
2019-01-15T07:39:27.943Z,2.47
2019-01-15T07:40:28.287Z,2.38
2019-01-15T07:41:27.931Z,2.46
2019-01-15T07:42:27.992Z,2.44
2019-01-15T07:43:27.912Z,2.49
2019-01-15T07:44:27.953Z,2.51
2019-01-15T07:45:27.893Z,2.56
2019-01-15T07:46:27.918Z,2.49
2019-01-15T07:47:27.892Z,2.51
2019-01-15T07:48:27.871Z,2.53
2019-01-15T07:49:27.867Z,2.61
2019-01-15T07:50:27.830Z,2.56
2019-01-15T07:51:27.826Z,2.57
2019-01-15T07:52:27.833Z,2.68
2019-01-15T07:53:27.829Z,2.64
2019-01-15T07:54:27.832Z,2.71
2019-01-15T07:55:27.776Z,2.62
2019-01-15T07:56:27.777Z,2.68
2019-01-15T07:57:27.785Z,2.68
2019-01-15T07:58:27.780Z,2.65
2019-01-15T07:59:27.785Z,2.68
2019-01-15T08:00:27.745Z,2.74
2019-01-15T08:01:27.726Z,2.61
2019-01-15T08:02:27.718Z,2.72
2019-01-15T08:03:28.824Z,2.68
2019-01-15T08:04:27.789Z,2.69
2019-01-15T08:05:27.666Z,2.67
2019-01-15T08:06:27.902Z,2.71
2019-01-15T08:07:27.655Z,2.72
2019-01-15T08:08:27.638Z,2.75
2019-01-15T08:09:27.629Z,2.65
2019-01-15T08:10:27.726Z,2.75
2019-01-15T08:11:27.631Z,2.77
2019-01-15T08:12:27.597Z,2.74
2019-01-15T08:13:27.582Z,2.82
2019-01-15T08:14:27.578Z,2.82
2019-01-15T08:15:27.575Z,2.75
2019-01-15T08:16:27.594Z,2.72
2019-01-15T08:17:27.559Z,2.75
2019-01-15T08:18:27.536Z,2.71
2019-01-15T08:19:27.520Z,2.74
2019-01-15T08:20:27.522Z,2.79
2019-01-15T08:21:27.500Z,2.64
2019-01-15T08:22:27.509Z,2.74
2019-01-15T08:23:27.493Z,2.72
2019-01-15T08:24:27.550Z,2.69
2019-01-15T08:25:27.455Z,2.79
2019-01-15T08:26:27.472Z,2.74
2019-01-15T08:27:27.447Z,2.71
2019-01-15T08:28:27.421Z,2.86
2019-01-15T08:29:27.441Z,2.86
2019-01-15T08:30:27.420Z,2.92
2019-01-15T08:31:27.398Z,2.83
2019-01-15T08:32:27.389Z,2.80
2019-01-15T08:33:27.403Z,2.83
2019-01-15T08:34:27.400Z,2.83
2019-01-15T08:35:27.367Z,3.00
2019-01-15T08:36:28.639Z,2.93
2019-01-15T08:37:27.360Z,2.93
2019-01-15T08:38:27.403Z,2.90
2019-01-15T08:39:27.312Z,3.01
2019-01-15T08:40:27.332Z,3.01
2019-01-15T08:41:27.275Z,3.01
2019-01-15T08:42:27.283Z,3.10
2019-01-15T08:43:27.323Z,3.03
2019-01-15T08:44:27.326Z,3.11
2019-01-15T08:45:27.286Z,3.13
2019-01-15T08:46:27.239Z,3.16
2019-01-15T08:47:27.244Z,3.16
2019-01-15T08:48:27.210Z,3.14
2019-01-15T08:49:27.215Z,3.22
2019-01-15T08:50:27.208Z,3.23
2019-01-15T08:51:27.175Z,3.22
2019-01-15T08:52:27.287Z,3.22
2019-01-15T08:53:27.180Z,3.36
2019-01-15T08:54:28.013Z,3.41
2019-01-15T08:55:27.164Z,3.37
2019-01-15T08:56:27.113Z,3.42
2019-01-15T08:57:27.154Z,3.34
2019-01-15T08:58:27.135Z,3.34
2019-01-15T08:59:27.088Z,3.45
2019-01-15T09:00:27.139Z,3.45
2019-01-15T09:01:27.072Z,3.48
2019-01-15T09:02:27.135Z,3.47
2019-01-15T09:03:27.055Z,3.53
2019-01-15T09:04:27.059Z,3.45
2019-01-15T09:05:27.089Z,3.48
2019-01-15T09:06:27.036Z,3.51
2019-01-15T09:07:27.009Z,3.42
2019-01-15T09:08:27.002Z,3.44
2019-01-15T09:09:27.008Z,3.45
2019-01-15T09:10:26.994Z,3.41
2019-01-15T09:11:26.966Z,3.42
2019-01-15T09:12:27.049Z,3.44
2019-01-15T09:13:26.946Z,3.44
2019-01-15T09:14:27.225Z,3.53
2019-01-15T09:15:27.019Z,3.47
2019-01-15T09:16:26.914Z,3.48
2019-01-15T09:17:26.912Z,3.59
2019-01-15T09:18:26.921Z,3.48
2019-01-15T09:19:26.890Z,3.66
2019-01-15T09:20:27.538Z,3.60
2019-01-15T09:21:26.881Z,3.63
2019-01-15T09:22:26.891Z,3.59
2019-01-15T09:23:26.879Z,3.59
2019-01-15T09:24:26.845Z,3.59
2019-01-15T09:25:26.867Z,3.60
2019-01-15T09:26:26.820Z,3.63
2019-01-15T09:27:26.812Z,3.63
2019-01-15T09:28:26.804Z,3.59
2019-01-15T09:29:26.774Z,3.60
2019-01-15T09:30:26.838Z,3.62
2019-01-15T09:31:26.774Z,3.76
2019-01-15T09:32:26.747Z,3.70
2019-01-15T09:33:26.740Z,3.68
2019-01-15T09:34:27.514Z,3.65
2019-01-15T09:35:26.805Z,3.63
2019-01-15T09:36:26.711Z,3.62
2019-01-15T09:37:26.732Z,3.70
2019-01-15T09:38:26.686Z,3.68
2019-01-15T09:39:26.664Z,3.77
2019-01-15T09:40:26.711Z,3.77
2019-01-15T09:41:26.676Z,3.80
2019-01-15T09:42:26.633Z,3.77
2019-01-15T09:43:26.634Z,3.81
2019-01-15T09:44:33.861Z,3.77
2019-01-15T09:45:27.662Z,3.91
2019-01-15T09:46:26.596Z,3.80
2019-01-15T09:47:26.620Z,3.78
2019-01-15T09:48:26.589Z,3.92
2019-01-15T09:49:26.567Z,3.83
2019-01-15T09:50:26.604Z,4.01
2019-01-15T09:51:26.560Z,3.99
2019-01-15T09:52:26.543Z,3.98
2019-01-15T09:53:26.530Z,3.92
2019-01-15T09:54:26.558Z,3.91
2019-01-15T09:55:26.528Z,3.95
2019-01-15T09:56:26.532Z,3.84
2019-01-15T09:57:26.496Z,3.99
2019-01-15T09:58:26.528Z,4.02
2019-01-15T09:59:26.464Z,4.10
2019-01-15T10:00:26.461Z,4.10
2019-01-15T10:01:26.445Z,4.05
2019-01-15T10:02:26.453Z,4.05
2019-01-15T10:03:26.508Z,4.02
2019-01-15T10:04:26.403Z,3.99
2019-01-15T10:05:26.421Z,4.06
2019-01-15T10:06:26.388Z,4.10
2019-01-15T10:07:26.382Z,4.12
2019-01-15T10:08:26.447Z,4.10
2019-01-15T10:09:26.396Z,4.13
2019-01-15T10:10:26.345Z,4.12
2019-01-15T10:11:26.323Z,4.13
2019-01-15T10:12:26.312Z,4.13
2019-01-15T10:13:26.334Z,4.12
2019-01-15T10:14:26.355Z,4.08
2019-01-15T10:15:26.283Z,4.17
2019-01-15T10:16:26.297Z,4.23
2019-01-15T10:17:26.263Z,4.16
2019-01-15T10:18:26.259Z,4.24
2019-01-15T10:19:26.272Z,4.20
2019-01-15T10:20:26.272Z,4.17
2019-01-15T10:21:26.258Z,4.23
2019-01-15T10:22:26.275Z,4.26
2019-01-15T10:23:26.205Z,4.30
2019-01-15T10:24:26.207Z,4.26
2019-01-15T10:25:26.175Z,4.40
2019-01-15T10:26:26.202Z,4.35
2019-01-15T10:27:26.256Z,4.34
2019-01-15T10:28:26.179Z,4.37
2019-01-15T10:29:26.137Z,4.32
2019-01-15T10:30:26.135Z,4.34
2019-01-15T10:31:26.130Z,4.44
2019-01-15T10:32:26.148Z,4.35
2019-01-15T10:33:26.102Z,4.26
2019-01-15T10:34:26.093Z,4.32
2019-01-15T10:35:26.150Z,4.34
2019-01-15T10:36:26.088Z,4.31
2019-01-15T10:37:26.062Z,4.35
2019-01-15T10:38:26.120Z,4.30
2019-01-15T10:39:26.027Z,4.38
2019-01-15T10:40:26.019Z,4.31
2019-01-15T10:41:26.046Z,4.40
2019-01-15T10:42:26.010Z,4.34
2019-01-15T10:43:25.989Z,4.38
2019-01-15T10:44:26.060Z,4.41
2019-01-15T10:45:25.958Z,4.35
2019-01-15T10:46:25.997Z,4.42
2019-01-15T10:47:25.950Z,4.45
2019-01-15T10:48:25.970Z,4.40
2019-01-15T10:49:25.958Z,4.48
2019-01-15T10:50:25.954Z,4.49
2019-01-15T10:51:25.918Z,4.53
2019-01-15T10:52:26.895Z,4.53
2019-01-15T10:53:25.878Z,4.52
2019-01-15T10:54:25.896Z,4.49
2019-01-15T10:55:25.890Z,4.53
2019-01-15T10:56:25.855Z,4.49
2019-01-15T10:57:25.870Z,4.48
2019-01-15T10:58:25.831Z,4.59
2019-01-15T10:59:26.507Z,4.50
2019-01-15T11:00:25.826Z,4.62
2019-01-15T11:01:25.811Z,4.66
2019-01-15T11:02:25.827Z,4.60
2019-01-15T11:03:25.796Z,4.60
2019-01-15T11:04:25.778Z,4.60
2019-01-15T11:05:25.782Z,4.67
2019-01-15T11:06:25.742Z,4.52
2019-01-15T11:07:25.823Z,4.50
2019-01-15T11:08:25.735Z,4.45
2019-01-15T11:09:25.786Z,4.52
2019-01-15T11:10:25.724Z,4.59
2019-01-15T11:11:26.505Z,4.60
2019-01-15T11:12:25.685Z,4.52
2019-01-15T11:13:25.678Z,4.63
2019-01-15T11:14:25.655Z,4.66
2019-01-15T11:15:25.694Z,4.63
2019-01-15T11:16:25.719Z,4.68
2019-01-15T11:17:25.628Z,4.70
2019-01-15T11:18:25.672Z,4.60
2019-01-15T11:19:25.615Z,4.63
2019-01-15T11:20:25.609Z,4.70
2019-01-15T11:21:25.607Z,4.70
2019-01-15T11:22:25.602Z,4.74
2019-01-15T11:23:26.516Z,4.71
2019-01-15T11:24:25.582Z,4.78
2019-01-15T11:25:25.532Z,4.68
2019-01-15T11:26:25.529Z,4.66
2019-01-15T11:27:25.543Z,4.63
2019-01-15T11:28:25.521Z,4.59
2019-01-15T11:29:25.611Z,4.78
2019-01-15T11:30:25.552Z,4.74
2019-01-15T11:31:25.530Z,4.77
2019-01-15T11:32:25.577Z,4.80
2019-01-15T11:33:25.493Z,4.80
2019-01-15T11:34:25.443Z,4.71
2019-01-15T11:35:25.517Z,4.74
2019-01-15T11:36:25.421Z,4.71
2019-01-15T11:37:25.450Z,4.77
2019-01-15T11:38:25.439Z,4.68
2019-01-15T11:39:25.401Z,4.75
2019-01-15T11:40:25.408Z,4.89
2019-01-15T11:41:25.367Z,4.93
2019-01-15T11:42:25.355Z,4.89
2019-01-15T11:43:25.346Z,4.87
2019-01-15T11:44:25.335Z,4.93
2019-01-15T11:45:25.350Z,4.89
2019-01-15T11:46:25.346Z,4.84
2019-01-15T11:47:25.307Z,4.90
2019-01-15T11:48:25.366Z,4.94
2019-01-15T11:49:25.281Z,4.89
2019-01-15T11:50:25.489Z,4.99
2019-01-15T11:51:25.352Z,5.02
2019-01-15T11:52:25.272Z,5.00
2019-01-15T11:53:25.277Z,5.08
2019-01-15T11:54:25.243Z,4.96
2019-01-15T11:55:25.230Z,4.99
2019-01-15T11:56:25.244Z,5.04
2019-01-15T11:57:25.221Z,4.99
2019-01-15T11:58:25.191Z,4.97
2019-01-15T11:59:25.195Z,5.07
2019-01-15T12:00:25.227Z,5.07
2019-01-15T12:01:25.176Z,5.07
2019-01-15T12:02:25.188Z,5.08
2019-01-15T12:03:25.129Z,5.04
2019-01-15T12:04:25.127Z,5.07
2019-01-15T12:05:25.110Z,5.10
2019-01-15T12:06:25.108Z,5.10
2019-01-15T12:07:25.098Z,5.04
2019-01-15T12:08:25.543Z,5.08
2019-01-15T12:09:25.087Z,5.15
2019-01-15T12:10:25.111Z,5.10
2019-01-15T12:11:25.078Z,5.15
2019-01-15T12:12:25.054Z,5.15
2019-01-15T12:13:25.040Z,5.17
2019-01-15T12:14:25.090Z,5.07
2019-01-15T12:15:25.042Z,5.07
2019-01-15T12:16:25.030Z,5.08
2019-01-15T12:17:25.021Z,5.11
2019-01-15T12:18:24.975Z,5.05
2019-01-15T12:19:25.000Z,5.00
2019-01-15T12:20:24.952Z,5.02
2019-01-15T12:21:24.955Z,5.05
2019-01-15T12:22:24.937Z,5.05
2019-01-15T12:23:25.046Z,5.02
2019-01-15T12:24:24.938Z,5.08
2019-01-15T12:25:24.943Z,4.92
2019-01-15T12:26:24.902Z,5.02
2019-01-15T12:27:24.910Z,5.02
2019-01-15T12:28:24.931Z,4.96
2019-01-15T12:29:24.888Z,4.92
2019-01-15T12:30:24.909Z,4.87
2019-01-15T12:31:24.864Z,5.00
2019-01-15T12:32:25.067Z,4.99
2019-01-15T12:33:24.860Z,5.04
2019-01-15T12:34:24.948Z,5.02
2019-01-15T12:35:24.863Z,5.00
2019-01-15T12:36:24.855Z,4.99
2019-01-15T12:37:24.794Z,4.97
2019-01-15T12:38:24.801Z,4.89
2019-01-15T12:39:24.767Z,4.87
2019-01-15T12:40:24.759Z,4.82
2019-01-15T12:41:24.748Z,4.89
2019-01-15T12:42:24.743Z,4.73
2019-01-15T12:43:25.045Z,4.86
2019-01-15T12:44:24.700Z,4.75
2019-01-15T12:45:24.740Z,4.71
2019-01-15T12:46:24.723Z,4.75
2019-01-15T12:47:24.679Z,4.77
2019-01-15T12:48:24.690Z,4.68
2019-01-15T12:49:24.701Z,4.75
2019-01-15T12:50:24.643Z,4.75
2019-01-15T12:51:25.507Z,4.74
2019-01-15T12:52:24.665Z,4.77
2019-01-15T12:53:24.708Z,4.77
2019-01-15T12:54:24.670Z,4.77
2019-01-15T12:55:24.603Z,4.73
2019-01-15T12:56:24.603Z,4.78
2019-01-15T12:57:24.570Z,4.80
2019-01-15T12:58:24.622Z,4.73
2019-01-15T12:59:24.550Z,4.74
2019-01-15T13:00:24.552Z,4.66
2019-01-15T13:01:24.569Z,4.78
2019-01-15T13:02:24.579Z,4.77
2019-01-15T13:03:24.532Z,4.77
2019-01-15T13:04:24.493Z,4.71
2019-01-15T13:05:24.535Z,4.77
2019-01-15T13:06:24.485Z,4.73
2019-01-15T13:07:24.491Z,4.80
2019-01-15T13:08:24.491Z,4.63
2019-01-15T13:09:24.492Z,4.80
2019-01-15T13:10:24.430Z,4.73
2019-01-15T13:11:24.442Z,4.67
2019-01-15T13:12:24.442Z,4.59
2019-01-15T13:13:24.453Z,4.67
2019-01-15T13:14:24.410Z,4.66
2019-01-15T13:15:34.134Z,4.58